Time;durP1;ratioP1;P1;durP2;ratioP2;P2;SDS_P1;SDS_P2;PMS_P1;PMS_P2;Temp;Humidity;BMP_temperature;BMP_pressure;BME280_temperature;BME280_humidity;BME280_pressure;Samples;Min_cycle;Max_cycle;Signal;HPM_P1;HPM_P2
2022/10/19 00:01:11;;;;;;;4.75;1.90;;;;;;;19.25;52.78;102809.69;5062427;28;20036;-59
2022/10/19 00:03:36;;;;;;;5.35;2.00;;;;;;;19.26;52.41;102810.53;5062305;28;20028;-59
2022/10/19 00:06:12;;;;;;;4.18;1.90;;;;;;;19.24;52.61;102807.97;5063020;28;20029;-60
2022/10/19 00:08:38;;;;;;;5.13;2.08;;;;;;;19.18;52.51;102795.97;5062103;28;20028;-61
2022/10/19 00:11:03;;;;;;;4.13;1.70;;;;;;;19.11;52.66;102783.16;5062172;28;20090;-60
2022/10/19 00:13:28;;;;;;;6.75;2.08;;;;;;;19.23;52.55;102802.75;5062600;28;20599;-59
2022/10/19 00:15:53;;;;;;;4.30;1.75;;;;;;;19.21;52.59;102798.41;5062345;28;20032;-59
2022/10/19 00:18:19;;;;;;;4.80;1.77;;;;;;;19.16;52.48;102789.03;5062214;28;20118;-59
2022/10/19 00:20:44;;;;;;;4.97;1.90;;;;;;;19.16;52.39;102795.16;5062045;28;20337;-59
2022/10/19 00:23:09;;;;;;;4.43;1.83;;;;;;;19.11;52.40;102783.16;5062120;28;20039;-59
2022/10/19 00:25:37;;;;;;;4.15;1.73;;;;;;;19.10;52.38;102779.63;5061840;28;20749;-60
2022/10/19 00:28:02;;;;;;;5.07;1.88;;;;;;;19.14;52.11;102783.00;5062277;28;20029;-62
2022/10/19 00:30:28;;;;;;;5.88;2.22;;;;;;;19.16;52.18;102789.03;5061799;28;20483;-62
2022/10/19 00:32:53;;;;;;;5.93;1.92;;;;;;;19.11;52.15;102781.34;5061769;28;20369;-60
2022/10/19 00:35:18;;;;;;;5.67;2.00;;;;;;;19.17;52.21;102785.47;5061549;28;20060;-59
2022/10/19 00:37:44;;;;;;;4.00;1.67;;;;;;;19.09;52.30;102767.38;5061844;28;20245;-59
2022/10/19 00:40:09;;;;;;;5.35;1.80;;;;;;;19.15;52.25;102785.56;5061528;28;20089;-60
2022/10/19 00:42:35;;;;;;;5.10;1.90;;;;;;;19.10;52.28;102776.16;5061782;28;21069;-60
2022/10/19 00:45:05;;;;;;;5.50;1.73;;;;;;;19.14;52.49;102789.13;5061858;28;20219;-60
2022/10/19 00:47:31;;;;;;;5.47;2.38;;;;;;;19.14;52.31;102796.22;5061726;28;20028;-59
2022/10/19 00:49:57;;;;;;;6.60;1.83;;;;;;;19.10;52.26;102787.56;5061478;28;20048;-62
2022/10/19 00:52:23;;;;;;;5.70;1.92;;;;;;;19.07;52.00;102790.38;5061582;28;20141;-60
2022/10/19 00:54:51;;;;;;;5.57;2.00;;;;;;;19.10;51.94;102790.22;5061280;28;20036;-62
2022/10/19 00:57:17;;;;;;;4.90;2.13;;;;;;;19.06;51.99;102785.19;5061884;28;20078;-61
2022/10/19 00:59:46;;;;;;;4.60;1.92;;;;;;;19.12;51.72;102798.06;5061515;28;20036;-61
2022/10/19 01:02:12;;;;;;;6.13;2.10;;;;;;;19.11;52.07;102799.00;5061538;28;20082;-60
2022/10/19 01:04:41;;;;;;;5.65;2.40;;;;;;;19.04;51.89;102782.63;5061155;28;20060;-60
2022/10/19 01:07:08;;;;;;;5.50;1.90;;;;;;;19.10;52.04;102797.28;5061527;28;20028;-60
2022/10/19 01:09:33;;;;;;;4.80;2.10;;;;;;;19.09;52.09;102790.28;5061074;28;20032;-62
2022/10/19 01:12:08;;;;;;;4.35;1.95;;;;;;;19.07;52.12;102785.09;5060868;28;20843;-60
2022/10/19 01:14:49;;;;;;;5.47;1.85;;;;;;;19.00;51.99;102781.09;5061304;28;20068;-59
2022/10/19 01:17:14;;;;;;;5.10;2.30;;;;;;;19.07;51.98;102787.72;5061696;28;20026;-60
2022/10/19 01:20:10;;;;;;;3.77;1.77;;;;;;;19.07;52.28;102793.03;5060959;28;20036;-61
2022/10/19 01:22:47;;;;;;;6.57;1.83;;;;;;;19.06;51.75;102788.69;5060936;28;20487;-61
2022/10/19 01:25:30;;;;;;;3.78;1.50;;;;;;;18.99;52.20;102787.31;5061136;28;20480;-60
2022/10/19 01:28:23;;;;;;;4.45;1.65;;;;;;;19.05;51.77;102789.63;5060750;28;20082;-60
2022/10/19 01:30:50;;;;;;;5.13;1.83;;;;;;;19.03;52.05;102786.22;5061333;28;20115;-62
2022/10/19 01:33:29;;;;;;;5.97;2.00;;;;;;;19.02;52.24;102781.84;5060925;28;20098;-62
2022/10/19 01:36:03;;;;;;;3.70;1.73;;;;;;;19.05;51.93;102783.50;5060718;28;20040;-60
2022/10/19 01:38:52;;;;;;;6.03;1.80;;;;;;;19.01;52.03;102775.72;5060951;28;20380;-60
2022/10/19 01:41:34;;;;;;;4.65;1.70;;;;;;;18.94;52.01;102761.13;5060709;28;20427;-60
2022/10/19 01:44:31;;;;;;;4.88;1.63;;;;;;;19.03;51.65;102788.84;5060528;28;20083;-60
2022/10/19 01:47:03;;;;;;;4.93;2.10;;;;;;;18.94;51.90;102773.50;5044664;28;20093;-61
2022/10/19 01:49:37;;;;;;;4.15;1.75;;;;;;;18.94;51.74;102773.50;5060936;28;20044;-61
2022/10/19 01:52:05;;;;;;;4.38;1.70;;;;;;;18.94;51.83;102769.06;5059836;28;20113;-60
2022/10/19 01:54:37;;;;;;;3.72;1.75;;;;;;;18.98;51.57;102777.69;5060705;28;20021;-60
2022/10/19 01:57:06;;;;;;;4.57;1.60;;;;;;;18.92;51.76;102768.28;5061284;28;20029;-62
2022/10/19 01:59:33;;;;;;;5.65;1.70;;;;;;;18.94;51.59;102765.56;5060645;28;20033;-60
2022/10/19 02:02:00;;;;;;;5.20;1.67;;;;;;;18.97;51.61;102770.69;5060777;28;20032;-58
2022/10/19 02:04:26;;;;;;;3.72;1.60;;;;;;;18.91;51.51;102760.44;5061120;28;20098;-60
2022/10/19 02:06:53;;;;;;;6.57;1.73;;;;;;;18.93;51.79;102762.09;5060662;28;20119;-60
2022/10/19 02:09:19;;;;;;;4.20;1.80;;;;;;;18.95;51.77;102757.56;5060529;28;20025;-60
2022/10/19 02:11:48;;;;;;;3.47;1.30;;;;;;;18.92;51.70;102751.59;5060913;28;20024;-60
2022/10/19 02:14:15;;;;;;;4.82;1.85;;;;;;;18.90;51.66;102743.75;5060648;28;20077;-59
2022/10/19 02:16:53;;;;;;;4.88;1.70;;;;;;;18.94;51.61;102741.78;5060970;28;20036;-61
2022/10/19 02:19:20;;;;;;;3.80;1.75;;;;;;;18.88;51.51;102734.19;5060309;28;20029;-61
2022/10/19 02:21:46;;;;;;;6.22;1.90;;;;;;;18.87;51.34;102727.19;5060856;28;20029;-59
2022/10/19 02:24:11;;;;;;;4.07;1.63;;;;;;;18.85;51.62;102725.50;5061927;28;20029;-59
2022/10/19 02:26:38;;;;;;;5.10;1.60;;;;;;;18.85;51.40;102727.31;5064223;28;21195;-58
2022/10/19 02:29:03;;;;;;;4.30;1.60;;;;;;;18.84;51.56;102722.97;5064250;28;20029;-59
2022/10/19 02:31:29;;;;;;;5.13;1.50;;;;;;;18.89;51.46;102736.75;5063771;28;20039;-60
2022/10/19 02:33:54;;;;;;;4.07;1.60;;;;;;;18.91;51.42;102723.47;5064353;28;20424;-60
2022/10/19 02:36:20;;;;;;;3.78;1.70;;;;;;;18.83;51.42;102713.28;5063715;28;20769;-58
2022/10/19 02:38:45;;;;;;;4.15;1.50;;;;;;;18.88;51.28;102719.19;5064248;28;20024;-59
2022/10/19 02:41:16;;;;;;;4.50;1.80;;;;;;;18.85;51.33;102714.09;5063699;28;20032;-62
2022/10/19 02:43:47;;;;;;;4.10;1.58;;;;;;;18.88;51.08;102721.00;5064026;28;20388;-59
2022/10/19 02:46:20;;;;;;;3.42;1.40;;;;;;;18.88;50.98;102716.53;5064029;28;20115;-59
2022/10/19 02:48:48;;;;;;;5.50;1.77;;;;;;;18.89;51.04;102712.13;5064033;28;20115;-59
2022/10/19 02:51:36;;;;;;;4.90;1.58;;;;;;;18.80;51.24;102702.88;5063678;28;20068;-59
2022/10/19 02:54:04;;;;;;;3.50;1.60;;;;;;;18.83;51.19;102719.44;5063776;28;20039;-62
2022/10/19 02:56:29;;;;;;;4.75;1.42;;;;;;;18.76;51.05;102701.38;5063958;28;20029;-59
2022/10/19 02:58:55;;;;;;;5.22;1.70;;;;;;;18.77;51.12;102706.56;5064067;28;20024;-60
2022/10/19 03:01:21;;;;;;;4.07;1.33;;;;;;;18.74;50.91;102706.72;5063601;28;20028;-59
2022/10/19 03:03:46;;;;;;;4.03;1.52;;;;;;;18.75;51.12;102704.94;5063630;28;20040;-60
2022/10/19 03:06:12;;;;;;;3.78;1.40;;;;;;;18.76;51.03;102702.22;5063661;28;20029;-59
2022/10/19 03:08:37;;;;;;;4.28;1.45;;;;;;;18.77;51.04;102706.56;5063529;28;20029;-59
2022/10/19 03:11:02;;;;;;;3.00;1.50;;;;;;;18.81;51.24;102712.53;5063424;28;20068;-60
2022/10/19 03:13:28;;;;;;;2.90;1.20;;;;;;;18.74;51.08;102709.38;5063682;28;20151;-59
2022/10/19 03:15:53;;;;;;;3.40;1.40;;;;;;;18.57;51.09;102680.38;5063841;28;20060;-60
2022/10/19 03:18:18;;;;;;;4.63;1.40;;;;;;;18.76;50.87;102723.34;5063230;28;20033;-60
2022/10/19 03:20:43;;;;;;;3.58;1.60;;;;;;;18.74;50.77;102722.56;5063195;28;20612;-61
2022/10/19 03:23:09;;;;;;;5.77;1.63;;;;;;;18.71;50.46;102716.59;5063356;28;20028;-61
2022/10/19 03:25:34;;;;;;;3.95;1.60;;;;;;;18.74;50.71;102717.28;5063377;28;20273;-59
2022/10/19 03:27:59;;;;;;;3.72;1.40;;;;;;;18.67;50.61;102703.56;5063467;28;20032;-59
2022/10/19 03:30:25;;;;;;;2.80;1.33;;;;;;;18.74;50.50;102713.78;5063112;28;20047;-60
2022/10/19 03:32:50;;;;;;;3.58;1.40;;;;;;;18.70;50.52;102709.63;5063021;28;20055;-62
2022/10/19 03:35:15;;;;;;;5.25;1.48;;;;;;;18.75;50.70;102718.13;5062603;28;20039;-61
2022/10/19 03:37:40;;;;;;;3.17;1.30;;;;;;;18.66;50.53;102701.84;5062854;28;20174;-60
2022/10/19 03:40:06;;;;;;;3.28;1.50;;;;;;;18.73;50.51;102705.00;5062786;28;20152;-60
2022/10/19 03:42:32;;;;;;;3.58;1.30;;;;;;;18.74;50.51;102711.13;5063029;28;20396;-59
2022/10/19 03:44:57;;;;;;;2.92;1.30;;;;;;;18.68;50.28;102704.41;5062858;28;20043;-59
2022/10/19 03:47:22;;;;;;;3.80;1.40;;;;;;;18.72;50.36;102713.88;5062725;28;20025;-59
2022/10/19 03:49:49;;;;;;;4.43;1.40;;;;;;;18.71;50.21;102709.53;5062711;28;20033;-61
2022/10/19 03:52:15;;;;;;;4.05;1.48;;;;;;;18.63;50.28;102699.38;5062540;28;20111;-62
2022/10/19 03:54:41;;;;;;;3.40;1.30;;;;;;;18.65;50.43;102704.59;5062489;28;20154;-62
2022/10/19 03:57:06;;;;;;;3.72;1.17;;;;;;;18.69;50.42;102721.94;5062650;28;20107;-60
2022/10/19 03:59:31;;;;;;;3.33;1.10;;;;;;;18.70;50.22;102725.47;5062798;28;20384;-60
2022/10/19 04:01:56;;;;;;;3.10;1.20;;;;;;;18.61;50.17;102703.03;5062124;28;20029;-60
2022/10/19 04:04:22;;;;;;;3.93;1.17;;;;;;;18.68;50.26;102725.53;5062645;28;20625;-60
2022/10/19 04:06:48;;;;;;;3.10;1.30;;;;;;;18.61;50.31;102716.22;5061136;28;20356;-61
2022/10/19 04:09:16;;;;;;;4.88;1.52;;;;;;;18.66;50.13;102717.69;5062266;28;20273;-61
2022/10/19 04:11:42;;;;;;;4.32;1.30;;;;;;;18.67;50.19;102724.69;5062523;28;20074;-61
2022/10/19 04:14:11;;;;;;;3.03;1.13;;;;;;;18.60;50.08;102709.28;5062348;28;20406;-60
2022/10/19 04:16:36;;;;;;;2.85;1.20;;;;;;;18.47;49.99;102680.88;5061877;28;20096;-63
2022/10/19 04:19:01;;;;;;;3.65;1.45;;;;;;;18.60;50.00;102698.69;5062480;28;20020;-59
2022/10/19 04:21:34;;;;;;;4.30;1.40;;;;;;;18.66;49.62;102714.22;5061780;28;20028;-61
2022/10/19 04:24:11;;;;;;;4.53;1.42;;;;;;;18.57;50.24;102702.34;5061781;28;20378;-60
2022/10/19 04:26:39;;;;;;;3.83;1.10;;;;;;;18.56;49.79;102697.16;5062007;28;20086;-60
2022/10/19 04:29:05;;;;;;;3.08;1.27;;;;;;;18.58;49.97;102698.78;5062118;28;20075;-61
2022/10/19 04:31:30;;;;;;;5.90;1.50;;;;;;;18.62;49.98;102705.59;5061753;28;20082;-60
2022/10/19 04:33:56;;;;;;;4.25;1.35;;;;;;;18.62;50.10;102702.94;5061701;28;20445;-60
2022/10/19 04:36:22;;;;;;;5.07;1.35;;;;;;;18.62;50.00;102700.31;5060536;28;20540;-60
2022/10/19 04:38:47;;;;;;;2.65;1.15;;;;;;;18.56;50.05;102683.94;5061906;28;20127;-60
2022/10/19 04:41:15;;;;;;;4.28;1.33;;;;;;;18.60;50.05;102702.19;5061806;28;20027;-62
2022/10/19 04:43:41;;;;;;;7.28;1.25;;;;;;;18.62;50.00;102699.47;5061463;28;20058;-60
2022/10/19 04:46:17;;;;;;;4.28;1.58;;;;;;;18.55;50.05;102691.03;5061602;28;20024;-61
2022/10/19 04:48:44;;;;;;;3.95;1.30;;;;;;;18.54;50.01;102691.94;5061045;28;20055;-60
2022/10/19 04:51:10;;;;;;;3.95;1.17;;;;;;;18.55;50.00;102687.50;5061404;28;20093;-60
2022/10/19 04:53:36;;;;;;;3.58;1.30;;;;;;;18.61;50.08;102703.03;5060908;28;20040;-58
2022/10/19 04:56:07;;;;;;;4.03;1.27;;;;;;;18.55;49.80;102701.59;5061842;28;20029;-60
2022/10/19 04:58:33;;;;;;;2.53;1.10;;;;;;;18.57;49.66;102705.00;5061544;28;20020;-60
2022/10/19 05:00:59;;;;;;;3.95;1.45;;;;;;;18.49;49.63;102697.47;5061055;28;20515;-61
2022/10/19 05:03:24;;;;;;;3.47;1.40;;;;;;;18.58;49.91;102708.47;5061558;28;20037;-60
2022/10/19 05:05:49;;;;;;;4.30;1.10;;;;;;;18.52;49.73;102699.13;5061000;28;20456;-61
2022/10/19 05:08:15;;;;;;;2.90;1.10;;;;;;;18.49;49.68;102694.84;5061622;28;20032;-59
2022/10/19 05:10:40;;;;;;;4.40;1.25;;;;;;;18.49;49.57;102701.91;5061108;28;20056;-60
2022/10/19 05:13:05;;;;;;;3.25;1.40;;;;;;;18.57;49.55;102709.44;5061105;28;20068;-61
2022/10/19 05:15:31;;;;;;;3.13;1.27;;;;;;;18.56;49.73;102705.91;5061411;28;20119;-59
2022/10/19 05:17:56;;;;;;;3.72;1.20;;;;;;;18.48;49.46;102695.78;5061432;28;20032;-61
2022/10/19 05:20:22;;;;;;;4.07;1.23;;;;;;;18.46;49.59;102694.16;5061071;28;20056;-63
2022/10/19 05:22:48;;;;;;;2.38;1.20;;;;;;;18.49;49.43;102689.56;5061460;28;20100;-61
2022/10/19 05:25:13;;;;;;;4.18;1.40;;;;;;;18.53;49.40;102697.31;5061337;28;20786;-62
2022/10/19 05:27:38;;;;;;;2.83;1.10;;;;;;;18.51;49.31;102688.63;5060992;28;20029;-60
2022/10/19 05:30:05;;;;;;;4.82;1.40;;;;;;;18.50;49.38;102687.78;5061154;28;20032;-61
2022/10/19 05:32:31;;;;;;;3.72;1.10;;;;;;;18.45;49.38;102669.56;5060658;28;20024;-61
2022/10/19 05:34:56;;;;;;;4.35;1.40;;;;;;;18.49;49.29;102675.50;5061156;28;20028;-58
2022/10/19 05:37:22;;;;;;;4.07;1.50;;;;;;;18.52;49.32;102680.63;5060847;28;20461;-60
2022/10/19 05:39:47;;;;;;;3.95;1.20;;;;;;;18.56;49.33;102684.78;5060954;28;20262;-59
2022/10/19 05:42:12;;;;;;;2.87;1.17;;;;;;;18.51;49.07;102675.44;5060688;28;20032;-59
2022/10/19 05:44:37;;;;;;;4.43;1.30;;;;;;;18.60;49.21;102678.41;5060814;28;20621;-59
2022/10/19 05:47:03;;;;;;;3.63;1.40;;;;;;;18.56;49.18;102674.22;5061029;28;20256;-60
2022/10/19 05:49:28;;;;;;;5.10;1.50;;;;;;;18.59;49.07;102668.78;5061118;28;20257;-60
2022/10/19 05:51:53;;;;;;;4.13;1.40;;;;;;;18.67;49.15;102679.81;5060607;28;20613;-59
2022/10/19 05:54:19;;;;;;;3.90;1.40;;;;;;;18.65;49.22;102670.25;5060814;28;20372;-59
2022/10/19 05:56:45;;;;;;;2.70;1.17;;;;;;;18.66;49.06;102670.16;5060672;28;20024;-59
2022/10/19 05:59:14;;;;;;;4.65;1.35;;;;;;;18.73;49.13;102669.84;5062334;28;20031;-59
2022/10/19 06:01:40;;;;;;;4.80;1.33;;;;;;;18.73;49.28;102660.13;5064665;28;20032;-58
2022/10/19 06:04:06;;;;;;;3.88;1.40;;;;;;;18.80;49.29;102669.41;5064847;28;20430;-60
2022/10/19 06:06:32;;;;;;;2.92;1.20;;;;;;;18.87;49.18;102677.00;5064473;28;20589;-62
2022/10/19 06:08:58;;;;;;;3.47;1.20;;;;;;;18.82;49.26;102658.78;5064984;28;20046;-58
2022/10/19 06:11:29;;;;;;;3.72;1.30;;;;;;;18.85;49.12;102659.47;5064340;28;20038;-59
2022/10/19 06:13:57;;;;;;;3.55;1.38;;;;;;;18.85;48.98;102659.47;5063176;28;20032;-60
2022/10/19 06:16:24;;;;;;;2.97;1.20;;;;;;;18.94;48.97;102663.38;5064504;28;20701;-58
2022/10/19 06:18:51;;;;;;;3.35;1.40;;;;;;;18.96;49.03;102666.81;5064422;28;20023;-59
2022/10/19 06:21:19;;;;;;;4.43;1.48;;;;;;;18.97;49.01;102668.50;5064178;28;20107;-60
2022/10/19 06:23:49;;;;;;;3.35;1.20;;;;;;;18.97;48.20;102663.19;5064393;28;20538;-60
2022/10/19 06:26:14;;;;;;;4.72;1.50;;;;;;;18.89;48.57;102651.38;5064364;28;20036;-60
2022/10/19 06:28:42;;;;;;;3.40;1.20;;;;;;;18.98;48.96;102672.00;5064391;28;20042;-60
2022/10/19 06:31:08;;;;;;;4.63;1.25;;;;;;;18.97;48.97;102672.94;5064019;28;20257;-59
2022/10/19 06:33:33;;;;;;;2.72;1.27;;;;;;;18.93;49.26;102669.63;5064085;28;20120;-60
2022/10/19 06:36:16;;;;;;;5.03;1.50;;;;;;;18.97;49.14;102667.66;5064198;28;20237;-59
2022/10/19 06:38:42;;;;;;;4.68;1.80;;;;;;;18.93;49.27;102660.81;5064590;28;20028;-60
2022/10/19 06:41:08;;;;;;;4.63;1.23;;;;;;;19.00;49.41;102678.03;5063779;28;20376;-60
2022/10/19 06:43:34;;;;;;;3.15;1.13;;;;;;;18.95;49.36;102658.97;5064180;28;20060;-60
2022/10/19 06:46:07;;;;;;;5.93;1.30;;;;;;;18.95;49.48;102666.88;5063980;28;20044;-61
2022/10/19 06:48:33;;;;;;;3.20;1.20;;;;;;;19.02;49.57;102676.16;5064050;28;20127;-62
2022/10/19 06:51:01;;;;;;;3.38;1.30;;;;;;;18.93;49.45;102661.69;5063698;28;20109;-60
2022/10/19 06:53:27;;;;;;;5.45;1.58;;;;;;;18.94;49.80;102662.53;5063739;28;20116;-62
2022/10/19 06:55:56;;;;;;;4.05;1.35;;;;;;;18.96;49.50;102663.28;5063803;28;20108;-60
2022/10/19 06:58:21;;;;;;;4.50;1.30;;;;;;;18.95;49.72;102659.81;5064013;28;20093;-61
2022/10/19 07:00:56;;;;;;;3.30;1.30;;;;;;;19.02;49.68;102674.34;5063401;28;20028;-60
2022/10/19 07:03:22;;;;;;;4.55;1.40;;;;;;;19.02;49.71;102679.66;5063792;28;20551;-61
2022/10/19 07:06:02;;;;;;;4.78;1.40;;;;;;;19.03;49.76;102673.44;5063631;28;20544;-60
2022/10/19 07:08:29;;;;;;;3.72;1.58;;;;;;;19.04;49.80;102663.69;5063459;28;20035;-61
2022/10/19 07:10:57;;;;;;;5.35;1.27;;;;;;;19.00;49.84;102662.19;5062666;28;20029;-60
2022/10/19 07:13:24;;;;;;;4.82;1.50;;;;;;;18.97;49.88;102662.34;5063493;28;20511;-60
2022/10/19 07:16:00;;;;;;;4.25;1.38;;;;;;;19.00;50.14;102665.69;5063560;28;20031;-60
2022/10/19 07:18:26;;;;;;;3.30;1.20;;;;;;;19.05;50.04;102678.63;5063784;28;20030;-60
2022/10/19 07:21:00;;;;;;;5.70;1.20;;;;;;;19.00;50.04;102667.47;5063271;28;20035;-60
2022/10/19 07:23:28;;;;;;;4.97;1.40;;;;;;;19.03;50.28;102672.59;5063520;28;20179;-60
2022/10/19 07:25:58;;;;;;;5.20;1.48;;;;;;;19.01;50.17;102661.25;5063274;28;20468;-59
2022/10/19 07:28:24;;;;;;;3.55;1.33;;;;;;;19.07;50.69;102682.03;5061836;28;20039;-68
2022/10/19 07:30:49;;;;;;;3.03;1.20;;;;;;;19.01;50.46;102675.31;5062495;28;20028;-66
2022/10/19 07:33:14;;;;;;;4.27;1.40;;;;;;;19.06;50.43;102663.63;5062867;28;20033;-68
2022/10/19 07:35:39;;;;;;;3.05;1.20;;;;;;;19.14;50.58;102672.84;5062429;28;20257;-69
2022/10/19 07:38:05;;;;;;;7.57;1.73;;;;;;;19.18;50.12;102658.50;5062618;28;20035;-68
2022/10/19 07:40:30;;;;;;;4.27;1.47;;;;;;;19.30;50.14;102664.03;5061216;28;20032;-69
2022/10/19 07:42:55;;;;;;;4.90;1.20;;;;;;;19.36;49.80;102666.31;5062459;28;20393;-65
2022/10/19 07:45:20;;;;;;;4.30;1.43;;;;;;;19.32;49.54;102662.16;5062118;28;20742;-67
2022/10/19 07:47:49;;;;;;;3.87;1.30;;;;;;;19.36;49.87;102667.16;5058586;28;20598;-65
2022/10/19 07:50:15;;;;;;;4.78;1.30;;;;;;;19.33;49.84;102667.34;5056178;28;20257;-67
2022/10/19 07:52:44;;;;;;;3.78;1.33;;;;;;;19.32;50.00;102656.84;5055895;28;20074;-67
2022/10/19 07:55:09;;;;;;;3.92;1.55;;;;;;;19.40;49.99;102663.38;5057122;28;20033;-65
2022/10/19 07:57:37;;;;;;;3.17;1.13;;;;;;;19.45;50.17;102659.63;5059411;28;20377;-66
2022/10/19 08:00:04;;;;;;;5.18;1.40;;;;;;;19.49;49.79;102655.88;5055868;28;20257;-66
2022/10/19 08:02:30;;;;;;;6.30;1.58;;;;;;;19.45;49.89;102646.41;5061450;28;20036;-66
2022/10/19 08:04:55;;;;;;;6.10;1.40;;;;;;;19.47;49.94;102649.81;5062310;28;20033;-65
2022/10/19 08:07:20;;;;;;;6.23;1.37;;;;;;;19.52;49.95;102642.47;5061994;28;20356;-65
2022/10/19 08:09:45;;;;;;;4.90;1.50;;;;;;;19.55;49.88;102650.22;5059848;28;20264;-67
2022/10/19 08:12:11;;;;;;;4.00;1.40;;;;;;;19.35;49.73;102615.22;5062076;28;20032;-67
2022/10/19 08:14:36;;;;;;;4.55;1.60;;;;;;;19.62;49.69;102648.91;5060471;28;20316;-65
2022/10/19 08:17:01;;;;;;;6.07;1.40;;;;;;;19.65;49.47;102654.03;5061782;28;20407;-65
2022/10/19 08:19:27;;;;;;;5.78;1.60;;;;;;;19.61;49.63;102643.72;5061177;28;20119;-65
2022/10/19 08:21:52;;;;;;;6.93;1.60;;;;;;;19.55;49.77;102631.69;5061225;28;20086;-69
2022/10/19 08:24:19;;;;;;;2.93;1.37;;;;;;;19.57;49.75;102627.19;5061673;28;20024;-69
2022/10/19 08:26:44;;;;;;;5.88;1.60;;;;;;;19.69;49.79;102631.75;5061687;28;20254;-69
2022/10/19 08:29:13;;;;;;;4.85;1.50;;;;;;;19.69;49.40;102617.66;5061424;28;20086;-64
2022/10/19 08:31:39;;;;;;;3.53;1.40;;;;;;;19.70;49.46;102620.22;5061087;28;20127;-68
2022/10/19 08:34:05;;;;;;;4.43;1.85;;;;;;;19.68;49.64;102613.31;5061179;28;20064;-68
2022/10/19 08:36:31;;;;;;;6.70;2.00;;;;;;;19.67;49.55;102607.16;5061234;28;20557;-66
2022/10/19 08:38:57;;;;;;;3.97;1.73;;;;;;;19.74;49.49;102621.75;5061291;28;20137;-70
2022/10/19 08:41:29;;;;;;;5.03;1.70;;;;;;;19.79;49.41;102612.69;5060065;28;20036;-66
2022/10/19 08:44:25;;;;;;;7.13;1.77;;;;;;;19.81;49.42;102614.31;5060421;28;20052;-67
2022/10/19 08:47:23;;;;;;;6.28;1.65;;;;;;;19.84;49.27;102614.13;5061702;28;20044;-67
2022/10/19 08:49:48;;;;;;;5.18;1.70;;;;;;;19.81;49.58;102594.94;5049354;28;20540;-66
2022/10/19 08:52:19;;;;;;;4.55;1.70;;;;;;;19.84;49.26;102595.59;5060983;28;20119;-66
2022/10/19 08:54:56;;;;;;;5.03;1.67;;;;;;;19.87;49.27;102597.22;5060602;28;20064;-69
2022/10/19 08:57:44;;;;;;;4.45;1.83;;;;;;;19.90;49.19;102599.66;5060806;28;20033;-69
2022/10/19 09:00:23;;;;;;;6.18;1.67;;;;;;;20.01;49.36;102613.09;5061085;28;20364;-68
2022/10/19 09:03:15;;;;;;;8.20;1.40;;;;;;;20.01;49.53;102606.94;5060960;28;20071;-62
2022/10/19 09:05:46;;;;;;;5.82;1.88;;;;;;;19.97;49.41;102602.81;5060946;28;20143;-63
2022/10/19 09:08:12;;;;;;;6.82;1.90;;;;;;;19.90;49.44;102594.38;5060798;28;20036;-63
2022/10/19 09:10:43;;;;;;;3.72;1.48;;;;;;;19.93;49.75;102596.81;5060662;28;20028;-63
2022/10/19 09:13:11;;;;;;;4.30;1.60;;;;;;;19.91;49.93;102596.91;5060213;28;20036;-63
2022/10/19 09:15:47;;;;;;;4.15;1.60;;;;;;;19.82;49.72;102586.91;5060724;28;20059;-62
2022/10/19 09:18:22;;;;;;;5.97;1.60;;;;;;;19.81;49.73;102590.50;5060540;28;20048;-60
2022/10/19 09:20:51;;;;;;;3.55;1.60;;;;;;;19.82;49.86;102602.78;5059376;28;20349;-61
2022/10/19 09:23:27;;;;;;;5.53;1.83;;;;;;;19.81;50.08;102613.47;5061354;28;20032;-62
2022/10/19 09:25:55;;;;;;;6.22;1.60;;;;;;;19.85;49.66;102620.25;5061016;28;20041;-61
2022/10/19 09:28:40;;;;;;;5.68;1.65;;;;;;;19.77;49.62;102609.28;5061358;28;20473;-62
2022/10/19 09:31:16;;;;;;;3.70;1.50;;;;;;;19.77;49.56;102602.19;5060989;28;20062;-64
2022/10/19 09:33:47;;;;;;;6.85;1.60;;;;;;;19.74;49.84;102600.56;5060626;28;20367;-61
2022/10/19 09:36:12;;;;;;;3.58;1.67;;;;;;;19.71;49.80;102592.81;5061114;28;20257;-65
2022/10/19 09:38:37;;;;;;;4.37;1.90;;;;;;;19.73;49.72;102596.22;5060663;28;20395;-60
2022/10/19 09:41:21;;;;;;;4.17;1.70;;;;;;;19.75;49.81;102604.06;5060876;28;20273;-62
2022/10/19 09:43:52;;;;;;;4.85;1.55;;;;;;;19.69;49.54;102591.22;5060986;28;20287;-61
2022/10/19 09:46:50;;;;;;;4.13;1.60;;;;;;;19.74;49.47;102597.94;5061382;28;20177;-62
2022/10/19 09:49:16;;;;;;;4.22;1.92;;;;;;;19.70;49.80;102590.28;5058683;28;20089;-72
2022/10/19 09:51:59;;;;;;;4.68;1.70;;;;;;;19.67;50.03;102574.59;5060004;28;20036;-70
2022/10/19 09:54:33;;;;;;;6.07;1.75;;;;;;;19.70;50.26;102571.75;5060268;28;20113;-70
2022/10/19 09:56:58;;;;;;;4.90;1.60;;;;;;;19.72;50.24;102575.16;5060115;28;20035;-71
2022/10/19 09:59:28;;;;;;;5.38;1.73;;;;;;;19.75;49.94;102575.81;5060093;28;20028;-70
2022/10/19 10:02:18;;;;;;;5.22;1.58;;;;;;;19.71;49.84;102563.72;5060342;28;20468;-69
2022/10/19 10:04:54;;;;;;;6.38;2.42;;;;;;;19.80;49.98;102559.69;5060123;28;20032;-64
2022/10/19 10:07:19;;;;;;;3.90;1.60;;;;;;;19.75;50.02;102554.66;5060127;28;20028;-65
2022/10/19 10:09:45;;;;;;;4.30;1.50;;;;;;;19.82;49.18;102578.13;5059637;28;20082;-65
2022/10/19 10:12:14;;;;;;;5.00;1.60;;;;;;;19.73;49.46;102559.19;5059943;28;20064;-65
2022/10/19 10:14:40;;;;;;;5.20;1.75;;;;;;;19.76;49.59;102568.78;5060119;28;20111;-71
2022/10/19 10:17:13;;;;;;;6.25;1.80;;;;;;;19.78;49.96;102556.28;5060981;28;20542;-70
2022/10/19 10:19:50;;;;;;;4.13;1.58;;;;;;;19.79;49.85;102558.00;5061322;28;20032;-70
2022/10/19 10:22:34;;;;;;;4.38;1.70;;;;;;;19.87;49.77;102568.97;5063618;28;20373;-73
2022/10/19 10:25:00;;;;;;;9.05;1.60;;;;;;;19.91;49.83;102573.09;5061807;28;20048;-73
2022/10/19 10:27:31;;;;;;;5.95;1.83;;;;;;;19.94;49.41;102567.63;5059781;28;20036;-66
2022/10/19 10:29:57;;;;;;;6.95;1.83;;;;;;;19.89;49.00;102550.34;5060196;28;20039;-67
2022/10/19 10:32:23;;;;;;;3.63;1.50;;;;;;;19.98;49.25;102557.72;5059889;28;20888;-69
2022/10/19 10:35:05;;;;;;;6.28;1.70;;;;;;;19.94;49.50;102548.25;5059980;28;20024;-68
2022/10/19 10:37:39;;;;;;;4.65;1.50;;;;;;;20.04;49.58;102559.13;5059837;28;20082;-67
2022/10/19 10:40:16;;;;;;;5.35;1.65;;;;;;;20.06;49.16;102549.28;5059250;28;20075;-65
2022/10/19 10:42:44;;;;;;;5.18;1.50;;;;;;;20.05;49.67;102547.59;5059872;28;20020;-63
2022/10/19 10:45:38;;;;;;;5.93;1.70;;;;;;;20.02;49.75;102547.78;5059854;28;20489;-66
2022/10/19 10:48:19;;;;;;;3.97;1.60;;;;;;;19.97;49.79;102537.47;5061896;28;20036;-69
2022/10/19 10:50:44;;;;;;;4.15;1.50;;;;;;;20.05;49.64;102551.09;5062917;28;20025;-72
2022/10/19 10:53:39;;;;;;;5.70;1.90;;;;;;;20.06;49.47;102547.50;5063919;28;20101;-68
2022/10/19 10:56:18;;;;;;;4.15;1.45;;;;;;;20.05;49.54;102537.84;5063389;28;20044;-68
2022/10/19 10:58:56;;;;;;;3.97;1.48;;;;;;;20.07;49.44;102529.81;5063403;28;20033;-70
2022/10/19 11:01:23;;;;;;;5.03;1.60;;;;;;;20.10;49.25;102527.81;5063226;28;20031;-67
2022/10/19 11:04:21;;;;;;;6.15;1.77;;;;;;;20.14;49.34;102539.09;5063094;28;20040;-64
2022/10/19 11:06:53;;;;;;;7.57;1.58;;;;;;;20.08;49.45;102511.19;5063090;28;20048;-66
2022/10/19 11:09:30;;;;;;;5.60;1.45;;;;;;;20.04;49.36;102507.03;5062907;28;20477;-67
2022/10/19 11:12:01;;;;;;;7.03;1.90;;;;;;;20.02;49.26;102508.09;5062899;28;20488;-64
2022/10/19 11:14:45;;;;;;;5.57;1.80;;;;;;;20.00;49.78;102508.19;5062609;28;20028;-65
2022/10/19 11:17:32;;;;;;;3.83;1.55;;;;;;;20.02;49.38;102505.44;5063027;28;20070;-65
2022/10/19 11:19:58;;;;;;;4.95;1.58;;;;;;;20.04;49.80;102508.84;5062777;28;20035;-65
2022/10/19 11:22:36;;;;;;;5.78;1.50;;;;;;;20.02;49.90;102503.63;5062849;28;20955;-68
2022/10/19 11:25:20;;;;;;;4.85;1.67;;;;;;;20.05;49.41;102489.38;5062969;28;20032;-67
2022/10/19 11:27:56;;;;;;;5.93;1.58;;;;;;;20.02;49.33;102479.81;5062771;28;20043;-64
2022/10/19 11:30:24;;;;;;;4.63;1.83;;;;;;;20.02;49.56;102468.41;5062375;28;20032;-65
2022/10/19 11:32:49;;;;;;;7.05;1.95;;;;;;;20.03;49.65;102478.88;5062290;28;20583;-60
2022/10/19 11:35:33;;;;;;;4.47;1.63;;;;;;;20.02;49.72;102471.03;5061495;28;20468;-60